KADM

Ardmore Municipal Airport

Ardmore, Oklahoma, USA
METAR KADM 160655Z AUTO 00000KT 10SM CLR 00/M01 A3022 RMK AO2 T10011006
Observed Flight Rules
Dec-16 @ 06:55 UTC (9 minutes ago) Visual Flight Rules
Visibility Clouds
10 miles
  • Clear skies
Temperatures Readings
Current -0°C / 32°F
Dewpoint -1°C / 30°F
Humidity 93%
Altimeter 30.22" Hg
Pressure 1023 hPa
Elevation 232
METAR KADM 160655Z AUTO 00000KT 10SM CLR 00/M01 A3022 RMK AO2 T10011006
Observed Flight Rules
Dec-16 @ 06:55 UTC
(9 minutes ago)
VFR
Clouds
  • Clear skies
Temperature Dewpoint
-0°C / 32°F -1°C / 30°F
Humidity Altimeter Pressure
93% 30.22" Hg 1023 hPa